Time;durP1;ratioP1;P1;durP2;ratioP2;P2;SDS_P1;SDS_P2;PMS_P1;PMS_P2;Temp;Humidity;BMP_temperature;BMP_pressure;BME280_temperature;BME280_humidity;BME280_pressure;Samples;Min_cycle;Max_cycle;Signal;HPM_P1;HPM_P2
2023/06/01 00:00:10;;;;;;;;;;;;;;;21.13;nan;101848.69;5046805;28;19921;-81
2023/06/01 00:02:36;;;;;;;;;;;;;;;21.11;nan;101853.63;5047140;28;19924;-80
2023/06/01 00:05:01;;;;;;;;;;;;;;;21.07;nan;101847.16;5046393;28;19917;-81
2023/06/01 00:07:29;;;;;;;;;;;;;;;21.02;nan;101847.22;5042013;28;19964;-81
2023/06/01 00:09:55;;;;;;;;;;;;;;;20.98;nan;101854.34;5045975;28;19962;-81
2023/06/01 00:12:20;;;;;;;;;;;;;;;20.96;nan;101846.47;5044533;28;19929;-81
2023/06/01 00:14:45;;;;;;;;;;;;;;;20.93;nan;101843.50;5043226;28;19928;-81
2023/06/01 00:17:11;;;;;;;;;;;;;;;20.85;nan;101849.59;5047674;28;20016;-81
2023/06/01 00:19:38;;;;;;;;;;;;;;;20.79;nan;101848.84;5046682;28;20491;-81
2023/06/01 00:22:03;;;;;;;;;;;;;;;20.73;nan;101842.66;5044740;28;19917;-81
2023/06/01 00:24:29;;;;;;;;;;;;;;;20.70;nan;101845.16;5044392;28;20031;-81
2023/06/01 00:26:54;;;;;;;;;;;;;;;20.67;nan;101846.53;5046288;28;19921;-81
2023/06/01 00:29:20;;;;;;;;;;;;;;;20.63;nan;101847.38;5044215;28;19932;-81
2023/06/01 00:31:46;;;;;;;;;;;;;;;20.56;nan;101839.56;5061830;28;20424;-80
2023/06/01 00:34:11;;;;;;;;;;;;;;;20.51;nan;101834.19;5045228;28;19955;-80
2023/06/01 00:36:37;;;;;;;;;;;;;;;20.46;nan;101839.66;5045937;28;19916;-81
2023/06/01 00:39:03;;;;;;;;;;;;;;;20.40;nan;101838.88;5041025;28;19995;-80
2023/06/01 00:41:29;;;;;;;;;;;;;;;20.33;nan;101837.59;5045593;28;20015;-81
2023/06/01 00:43:54;;;;;;;;;;;;;;;20.29;nan;101841.97;5043521;28;20456;-81
2023/06/01 00:46:20;;;;;;;;;;;;;;;20.22;nan;101836.88;5047589;28;19986;-81
2023/06/01 00:48:45;;;;;;;;;;;;;;;20.17;nan;101842.38;5044828;28;20047;-80
2023/06/01 00:51:12;;;;;;;;;;;;;;;20.10;nan;101839.97;5044080;28;20031;-81
2023/06/01 00:53:37;;;;;;;;;;;;;;;20.06;nan;101840.81;5046375;28;20405;-81
2023/06/01 00:56:03;;;;;;;;;;;;;;;20.02;nan;101837.88;5046414;28;19917;-80
2023/06/01 00:58:28;;;;;;;;;;;;;;;19.99;nan;101837.63;5045607;28;19975;-80
2023/06/01 01:00:53;;;;;;;;;;;;;;;19.95;nan;101837.41;5048131;28;19955;-81
2023/06/01 01:03:21;;;;;;;;;;;;;;;19.91;nan;101834.41;5044115;28;19921;-81
2023/06/01 01:05:47;;;;;;;;;;;;;;;19.87;nan;101833.38;5045099;28;19995;-81
2023/06/01 01:08:35;;;;;;;;;;;;;;;19.83;nan;101828.78;5042390;28;20737;-80
2023/06/01 01:11:03;;;;;;;;;;;;;;;19.73;nan;101828.84;5039729;28;19921;-81
2023/06/01 01:13:38;;;;;;;;;;;;;;;19.65;nan;101832.19;5043882;28;19936;-80
2023/06/01 01:16:07;;;;;;;;;;;;;;;19.59;nan;101829.50;5043581;28;19927;-81
2023/06/01 01:18:54;;;;;;;;;;;;;;;19.54;nan;101826.78;5043893;28;19917;-81
2023/06/01 01:21:28;;;;;;;;;;;;;;;19.46;nan;101830.09;5046297;28;19916;-81
2023/06/01 01:23:59;;;;;;;;;;;;;;;19.40;nan;101825.78;5044546;28;19923;-81
2023/06/01 01:26:35;;;;;;;;;;;;;;;19.35;nan;101825.00;5046319;28;20407;-81
2023/06/01 01:29:03;;;;;;;;;;;;;;;19.33;nan;101826.09;5047090;28;19931;-81
2023/06/01 01:31:30;;;;;;;;;;;;;;;19.30;nan;101821.22;5045330;28;20007;-80
2023/06/01 01:33:56;;;;;;;;;;;;;;;19.26;nan;101822.88;5045953;28;19927;-80
2023/06/01 01:36:22;;;;;;;;;;;;;;;19.23;nan;101818.00;5044878;28;20395;-81
2023/06/01 01:38:47;;;;;;;;;;;;;;;19.20;nan;101817.72;5043157;28;19927;-80
2023/06/01 01:41:13;;;;;;;;;;;;;;;19.15;nan;101818.56;5045912;28;19917;-81
2023/06/01 01:43:39;;;;;;;;;;;;;;;19.12;nan;101818.31;5045347;28;20003;-80
2023/06/01 01:46:13;;;;;;;;;;;;;;;19.07;nan;101821.88;5045321;28;20367;-80
2023/06/01 01:48:51;;;;;;;;;;;;;;;19.04;nan;101819.72;5045210;28;19978;-80
2023/06/01 01:51:22;;;;;;;;;;;;;;;18.99;nan;101819.72;5049263;28;19925;-80
2023/06/01 01:53:48;;;;;;;;;;;;;;;18.91;nan;101817.63;5049339;28;20407;-81
2023/06/01 01:56:14;;;;;;;;;;;;;;;18.86;nan;101818.44;5048571;28;19916;-81
2023/06/01 01:58:40;;;;;;;;;;;;;;;18.82;nan;101817.34;5049244;28;20434;-80
2023/06/01 02:01:06;;;;;;;;;;;;;;;18.74;nan;101817.13;5047543;28;19917;-80
2023/06/01 02:03:32;;;;;;;;;;;;;;;18.69;nan;101817.97;5046488;28;19971;-80
2023/06/01 02:05:57;;;;;;;;;;;;;;;18.66;nan;101810.34;5049769;28;20402;-80
2023/06/01 02:08:22;;;;;;;;;;;;;;;18.65;nan;101814.16;5045967;28;19932;-80
2023/06/01 02:10:48;;;;;;;;;;;;;;;18.64;nan;101809.81;5048894;28;19920;-80
2023/06/01 02:13:13;;;;;;;;;;;;;;;18.62;nan;101809.25;5048438;28;19921;-80
2023/06/01 02:15:38;;;;;;;;;;;;;;;18.61;nan;101804.91;5045134;28;20011;-80
2023/06/01 02:18:04;;;;;;;;;;;;;;;18.58;nan;101808.19;5047976;28;19982;-81
2023/06/01 02:20:29;;;;;;;;;;;;;;;18.56;nan;101811.19;5047019;28;19925;-80
2023/06/01 02:22:55;;;;;;;;;;;;;;;18.54;nan;101804.41;5050052;28;20003;-80
2023/06/01 02:25:20;;;;;;;;;;;;;;;18.50;nan;101806.06;5046338;28;19935;-80
2023/06/01 02:27:45;;;;;;;;;;;;;;;18.48;nan;101808.19;5047103;28;19925;-81
2023/06/01 02:30:11;;;;;;;;;;;;;;;18.45;nan;101796.00;5045717;28;19924;-80
2023/06/01 02:32:38;;;;;;;;;;;;;;;18.39;nan;101797.91;5048783;28;20448;-80
2023/06/01 02:35:04;;;;;;;;;;;;;;;18.37;nan;101796.56;5045321;28;20431;-80
2023/06/01 02:37:29;;;;;;;;;;;;;;;18.35;nan;101788.72;5045555;28;20115;-80
2023/06/01 02:39:55;;;;;;;;;;;;;;;18.33;nan;101785.47;5045007;28;19917;-80
2023/06/01 02:42:20;;;;;;;;;;;;;;;18.30;nan;101780.56;5046351;28;19956;-80
2023/06/01 02:44:45;;;;;;;;;;;;;;;18.29;nan;101783.56;5046667;28;19963;-80
2023/06/01 02:47:11;;;;;;;;;;;;;;;18.27;nan;101783.81;5045073;28;19916;-81
2023/06/01 02:49:36;;;;;;;;;;;;;;;18.27;nan;101780.31;5044435;28;20311;-80
2023/06/01 02:52:01;;;;;;;;;;;;;;;18.32;nan;101778.41;5048588;28;20555;-80
2023/06/01 02:54:27;;;;;;;;;;;;;;;18.38;nan;101771.06;5046119;28;20375;-80
2023/06/01 02:56:52;;;;;;;;;;;;;;;18.48;nan;101768.31;5047229;28;20364;-80
2023/06/01 02:59:17;;;;;;;;;;;;;;;18.56;nan;101766.94;5046098;28;19929;-81
2023/06/01 03:01:43;;;;;;;;;;;;;;;18.63;nan;101778.34;5046863;28;19921;-80
2023/06/01 03:04:10;;;;;;;;;;;;;;;18.69;nan;101785.38;5047215;28;19924;-80
2023/06/01 03:06:37;;;;;;;;;;;;;;;18.70;nan;101782.41;5046077;28;19917;-80
2023/06/01 03:09:02;;;;;;;;;;;;;;;18.74;nan;101779.94;5047605;28;19916;-81
2023/06/01 03:11:28;;;;;;;;;;;;;;;18.78;nan;101783.72;5043551;28;19921;-82
2023/06/01 03:13:53;;;;;;;;;;;;;;;18.80;nan;101784.25;5047790;28;19924;-81
2023/06/01 03:16:18;;;;;;;;;;;;;;;18.80;nan;101781.53;5047988;28;19917;-81
2023/06/01 03:18:44;;;;;;;;;;;;;;;18.81;nan;101777.72;5046481;28;20375;-80
2023/06/01 03:21:09;;;;;;;;;;;;;;;18.82;nan;101771.19;5041340;28;20546;-80
2023/06/01 03:23:35;;;;;;;;;;;;;;;18.84;nan;101779.06;5046647;28;20406;-80
2023/06/01 03:26:03;;;;;;;;;;;;;;;18.86;nan;101777.72;5051318;28;19917;-80
2023/06/01 03:28:29;;;;;;;;;;;;;;;18.90;nan;101777.97;5042376;28;19925;-80
2023/06/01 03:30:55;;;;;;;;;;;;;;;18.92;nan;101781.22;5042830;28;19925;-81
2023/06/01 03:33:21;;;;;;;;;;;;;;;18.92;nan;101776.59;5046366;28;19974;-80
2023/06/01 03:35:46;;;;;;;;;;;;;;;18.98;nan;101780.91;5045257;28;19921;-81
2023/06/01 03:38:12;;;;;;;;;;;;;;;19.05;nan;101771.66;5043838;28;20419;-81
2023/06/01 03:40:37;;;;;;;;;;;;;;;19.12;nan;101769.44;5044253;28;20320;-80
2023/06/01 03:43:03;;;;;;;;;;;;;;;19.18;nan;101771.81;5047016;28;20391;-81
2023/06/01 03:45:28;;;;;;;;;;;;;;;19.24;nan;101767.19;5045097;28;19924;-81
2023/06/01 03:47:53;;;;;;;;;;;;;;;19.29;nan;101769.88;5043440;28;20533;-80
2023/06/01 03:50:19;;;;;;;;;;;;;;;19.33;nan;101768.22;5040884;28;20754;-81
2023/06/01 03:52:44;;;;;;;;;;;;;;;19.36;nan;101767.63;5043016;28;19929;-81
2023/06/01 03:55:13;;;;;;;;;;;;;;;19.40;nan;101766.00;5046427;28;19925;-81
2023/06/01 03:57:38;;;;;;;;;;;;;;;19.48;nan;101773.53;5043283;28;19917;-81
2023/06/01 04:00:17;;;;;;;;;;;;;;;19.51;nan;101772.97;5043398;28;20430;-80
2023/06/01 04:02:43;;;;;;;;;;;;;;;19.57;nan;101773.78;5046750;28;20576;-80
2023/06/01 04:05:13;;;;;;;;;;;;;;;19.58;nan;101770.78;5042453;28;19917;-81
2023/06/01 04:07:39;;;;;;;;;;;;;;;19.58;nan;101778.94;5041347;28;19927;-80
2023/06/01 04:10:05;;;;;;;;;;;;;;;19.55;nan;101775.97;5039554;28;19929;-80
2023/06/01 04:12:30;;;;;;;;;;;;;;;19.53;nan;101775.41;5041081;28;20055;-79
2023/06/01 04:14:55;;;;;;;;;;;;;;;19.54;nan;101780.59;5044032;28;19917;-80
2023/06/01 04:17:21;;;;;;;;;;;;;;;19.57;nan;101785.47;5043539;28;19927;-80
2023/06/01 04:19:46;;;;;;;;;;;;;;;19.60;nan;101784.91;5046496;28;19927;-81
2023/06/01 04:22:12;;;;;;;;;;;;;;;19.63;nan;101788.16;5041991;28;19963;-81
2023/06/01 04:24:37;;;;;;;;;;;;;;;19.66;nan;101790.31;5040595;28;19921;-80
2023/06/01 04:27:04;;;;;;;;;;;;;;;19.70;nan;101780.47;5042817;28;19917;-80
2023/06/01 04:29:29;;;;;;;;;;;;;;;19.76;nan;101784.78;5043907;28;19978;-82
2023/06/01 04:31:55;;;;;;;;;;;;;;;19.80;nan;101774.97;5041039;28;20657;-80
2023/06/01 04:34:21;;;;;;;;;;;;;;;19.84;nan;101781.44;5044085;28;19956;-81
2023/06/01 04:36:51;;;;;;;;;;;;;;;19.86;nan;101781.97;5045776;28;19921;-80
2023/06/01 04:39:16;;;;;;;;;;;;;;;19.87;nan;101783.59;5043291;28;19979;-79
2023/06/01 04:41:41;;;;;;;;;;;;;;;19.84;nan;101776.81;5042635;28;19920;-79
2023/06/01 04:44:08;;;;;;;;;;;;;;;19.80;nan;101783.13;5045993;28;19916;-79
2023/06/01 04:46:34;;;;;;;;;;;;;;;19.83;nan;101782.56;5045335;28;19928;-80
2023/06/01 04:49:00;;;;;;;;;;;;;;;19.85;nan;101781.16;5037749;28;20011;-80
2023/06/01 04:51:26;;;;;;;;;;;;;;;19.89;nan;101784.94;5043277;28;20012;-80
2023/06/01 04:53:52;;;;;;;;;;;;;;;19.98;nan;101787.06;5043569;28;19931;-80
2023/06/01 04:56:18;;;;;;;;;;;;;;;20.00;nan;101790.28;5051508;28;19921;-80
2023/06/01 04:58:47;;;;;;;;;;;;;;;19.96;nan;101790.06;5057634;28;19923;-79
2023/06/01 05:01:15;;;;;;;;;;;;;;;19.99;nan;101788.69;5045536;28;19932;-80
2023/06/01 05:03:41;;;;;;;;;;;;;;;19.99;nan;101788.69;5042205;28;20292;-79
2023/06/01 05:06:06;;;;;;;;;;;;;;;20.04;nan;101770.38;5045213;28;19920;-80
2023/06/01 05:08:33;;;;;;;;;;;;;;;20.08;nan;101778.78;5041728;28;19917;-79
2023/06/01 05:10:58;;;;;;;;;;;;;;;20.07;nan;101780.69;5040991;28;19925;-78
2023/06/01 05:13:24;;;;;;;;;;;;;;;20.12;nan;101782.56;5047253;28;19928;-78
2023/06/01 05:15:49;;;;;;;;;;;;;;;20.14;nan;101778.47;5041369;28;19924;-79
2023/06/01 05:18:15;;;;;;;;;;;;;;;20.13;nan;101781.47;5040655;28;19924;-79
2023/06/01 05:20:40;;;;;;;;;;;;;;;20.17;nan;101780.59;5043698;28;20027;-79
2023/06/01 05:23:05;;;;;;;;;;;;;;;20.21;nan;101789.81;5042453;28;19971;-79
2023/06/01 05:25:30;;;;;;;;;;;;;;;20.25;nan;101783.78;5045953;28;19970;-79
2023/06/01 05:27:56;;;;;;;;;;;;;;;20.28;nan;101783.19;5050524;28;19924;-78
2023/06/01 05:30:21;;;;;;;;;;;;;;;20.35;nan;101780.97;5048176;28;19929;-79
2023/06/01 05:32:47;;;;;;;;;;;;;;;20.40;nan;101783.63;5047116;28;19925;-79
2023/06/01 05:35:12;;;;;;;;;;;;;;;20.43;nan;101780.34;5048158;28;20395;-79
2023/06/01 05:37:38;;;;;;;;;;;;;;;20.47;nan;101779.50;5044551;28;19921;-78
2023/06/01 05:40:06;;;;;;;;;;;;;;;20.55;nan;101775.31;5047831;28;19920;-78
2023/06/01 05:42:32;;;;;;;;;;;;;;;20.60;nan;101785.34;5048681;28;19924;-79
2023/06/01 05:44:57;;;;;;;;;;;;;;;20.62;nan;101794.84;5047062;28;19929;-78
2023/06/01 05:47:22;;;;;;;;;;;;;;;20.61;nan;101790.50;5047310;28;20373;-79
2023/06/01 05:49:48;;;;;;;;;;;;;;;20.64;nan;101792.63;5048188;28;20458;-79
2023/06/01 05:52:13;;;;;;;;;;;;;;;20.64;nan;101786.38;5045049;28;19916;-80
2023/06/01 05:54:39;;;;;;;;;;;;;;;20.64;nan;101789.91;5045441;28;19924;-80
2023/06/01 05:57:05;;;;;;;;;;;;;;;20.62;nan;101789.38;5043505;28;20384;-80
2023/06/01 05:59:30;;;;;;;;;;;;;;;20.67;nan;101794.78;5044633;28;20372;-79
2023/06/01 06:01:56;;;;;;;;;;;;;;;20.64;nan;101795.34;5039427;28;19956;-79
2023/06/01 06:04:22;;;;;;;;;;;;;;;20.65;nan;101797.00;5047660;28;19959;-79
2023/06/01 06:06:47;;;;;;;;;;;;;;;20.68;nan;101795.59;5048564;28;20443;-79
2023/06/01 06:09:13;;;;;;;;;;;;;;;20.71;nan;101797.75;5047568;28;20000;-79
2023/06/01 06:11:40;;;;;;;;;;;;;;;20.76;nan;101792.22;5043358;28;19916;-79
2023/06/01 06:14:05;;;;;;;;;;;;;;;20.83;nan;101791.91;5046860;28;19928;-79
2023/06/01 06:16:30;;;;;;;;;;;;;;;20.94;nan;101785.19;5045497;28;19921;-78
2023/06/01 06:18:56;;;;;;;;;;;;;;;20.97;nan;101788.13;5048896;28;20556;-79
2023/06/01 06:21:21;;;;;;;;;;;;;;;21.03;nan;101787.00;5047889;28;19962;-81
2023/06/01 06:23:47;;;;;;;;;;;;;;;21.11;nan;101786.31;5045121;28;19921;-81
2023/06/01 06:26:13;;;;;;;;;;;;;;;21.12;nan;101787.13;5043944;28;20385;-80
2023/06/01 06:28:38;;;;;;;;;;;;;;;21.13;nan;101780.56;5046321;28;19924;-81
2023/06/01 06:31:03;;;;;;;;;;;;;;;21.24;nan;101781.25;5047057;28;20357;-80
2023/06/01 06:33:29;;;;;;;;;;;;;;;21.38;nan;101782.16;5044743;28;19928;-81
2023/06/01 06:35:54;;;;;;;;;;;;;;;21.41;nan;101785.09;5044894;28;19916;-81
2023/06/01 06:38:19;;;;;;;;;;;;;;;21.47;nan;101780.38;5046443;28;19928;-81
2023/06/01 06:40:45;;;;;;;;;;;;;;;21.43;nan;101787.53;5047139;28;19947;-80
2023/06/01 06:43:10;;;;;;;;;;;;;;;21.48;nan;101781.19;5064987;28;19920;-80
2023/06/01 06:45:35;;;;;;;;;;;;;;;21.55;nan;101781.66;5045354;28;19917;-80
2023/06/01 06:48:01;;;;;;;;;;;;;;;21.63;nan;101778.22;5045033;28;20506;-80
2023/06/01 06:50:26;;;;;;;;;;;;;;;21.70;nan;101784.91;5045970;28;20411;-79
2023/06/01 06:52:51;;;;;;;;;;;;;;;21.73;nan;101775.34;5046962;28;19975;-79
2023/06/01 06:55:17;;;;;;;;;;;;;;;21.77;nan;101779.09;5048298;28;19927;-79
2023/06/01 06:57:42;;;;;;;;;;;;;;;21.84;nan;101781.44;5046353;28;19920;-79
2023/06/01 07:00:08;;;;;;;;;;;;;;;21.91;nan;101777.22;5042443;28;19917;-79
2023/06/01 07:02:34;;;;;;;;;;;;;;;21.92;nan;101781.56;5046035;28;20139;-80
2023/06/01 07:04:59;;;;;;;;;;;;;;;21.90;nan;101783.78;5045043;28;20434;-81
2023/06/01 07:07:25;;;;;;;;;;;;;;;21.94;nan;101773.88;5061713;28;19913;-81
2023/06/01 07:09:50;;;;;;;;;;;;;;;22.01;nan;101778.94;5041918;28;19917;-81
2023/06/01 07:12:15;;;;;;;;;;;;;;;22.06;nan;101780.78;5046210;28;19916;-80
2023/06/01 07:14:41;;;;;;;;;;;;;;;22.15;nan;101785.28;5048417;28;20577;-79
2023/06/01 07:17:06;;;;;;;;;;;;;;;22.17;nan;101783.06;5044793;28;20293;-79
2023/06/01 07:19:32;;;;;;;;;;;;;;;22.18;nan;101781.13;5049207;28;19916;-80
2023/06/01 07:22:01;;;;;;;;;;;;;;;22.14;nan;101777.38;5047691;28;19975;-79
2023/06/01 07:24:27;;;;;;;;;;;;;;;22.14;nan;101782.84;5044808;28;19943;-79
2023/06/01 07:26:53;;;;;;;;;;;;;;;22.07;nan;101788.69;5044268;28;20502;-79
2023/06/01 07:29:19;;;;;;;;;;;;;;;22.12;nan;101788.59;5049055;28;19923;-79
2023/06/01 07:31:45;;;;;;;;;;;;;;;22.19;nan;101793.66;5046484;28;19917;-79
2023/06/01 07:34:10;;;;;;;;;;;;;;;22.31;nan;101788.53;5047575;28;19936;-79
2023/06/01 07:36:38;;;;;;;;;;;;;;;22.41;nan;101785.59;5045018;28;19913;-81
2023/06/01 07:39:08;;;;;;;;;;;;;;;22.44;nan;101786.91;5057022;28;20019;-81
2023/06/01 07:41:34;;;;;;;;;;;;;;;22.50;nan;101793.91;5042946;28;19975;-81
2023/06/01 07:43:59;;;;;;;;;;;;;;;22.51;nan;101782.69;5041168;28;20514;-81
2023/06/01 07:46:24;;;;;;;;;;;;;;;22.56;nan;101784.50;5045541;28;19924;-81
2023/06/01 07:48:50;;;;;;;;;;;;;;;22.63;nan;101784.91;5039897;28;19931;-80
2023/06/01 07:51:16;;;;;;;;;;;;;;;22.68;nan;101781.25;5042868;28;19917;-81
2023/06/01 07:53:41;;;;;;;;;;;;;;;22.78;nan;101781.84;5046376;28;20396;-80
2023/06/01 07:56:07;;;;;;;;;;;;;;;22.84;nan;101785.31;5048104;28;19970;-79
2023/06/01 07:58:33;;;;;;;;;;;;;;;22.82;nan;101788.38;5043121;28;19997;-79
2023/06/01 08:00:58;;;;;;;;;;;;;;;22.87;nan;101788.25;5046852;28;19936;-80
2023/06/01 08:03:25;;;;;;;;;;;;;;;22.90;nan;101778.63;5044123;28;20364;-79
2023/06/01 08:05:54;;;;;;;;;;;;;;;22.94;nan;101787.81;5045980;28;19925;-79
2023/06/01 08:08:21;;;;;;;;;;;;;;;23.08;nan;101790.53;5045263;28;19921;-79
2023/06/01 08:10:46;;;;;;;;;;;;;;;23.20;nan;101790.81;5044877;28;19925;-79
2023/06/01 08:13:12;;;;;;;;;;;;;;;23.27;nan;101787.66;5042432;28;19924;-79
2023/06/01 08:15:38;;;;;;;;;;;;;;;23.37;nan;101780.03;5040606;28;20187;-81
2023/06/01 08:18:04;;;;;;;;;;;;;;;23.54;nan;101789.50;5039258;28;20428;-80
2023/06/01 08:20:30;;;;;;;;;;;;;;;23.74;nan;101786.31;5045171;28;19924;-80
2023/06/01 08:22:55;;;;;;;;;;;;;;;23.86;nan;101774.75;5042878;28;19993;-80
2023/06/01 08:25:20;;;;;;;;;;;;;;;23.96;nan;101777.25;5044164;28;20832;-80
2023/06/01 08:27:47;;;;;;;;;;;;;;;23.99;nan;101780.16;5045714;28;19925;-81
2023/06/01 08:30:12;;;;;;;;;;;;;;;24.04;nan;101781.94;5040177;28;19920;-81
2023/06/01 08:32:38;;;;;;;;;;;;;;;24.03;nan;101777.59;5056879;28;20299;-80
2023/06/01 08:35:05;;;;;;;;;;;;;;;24.03;nan;101774.88;5043596;28;19920;-79
2023/06/01 08:37:30;;;;;;;;;;;;;;;24.11;nan;101774.13;5045848;28;19931;-80
2023/06/01 08:39:56;;;;;;;;;;;;;;;24.33;nan;101773.28;5044122;28;20296;-81
2023/06/01 08:42:38;;;;;;;;;;;;;;;24.39;nan;101777.47;5043611;28;20038;-81
2023/06/01 08:45:05;;;;;;;;;;;;;;;24.44;nan;101763.66;5045519;28;19996;-79
2023/06/01 08:47:31;;;;;;;;;;;;;;;24.46;nan;101768.81;5044233;28;19932;-80
2023/06/01 08:49:58;;;;;;;;;;;;;;;24.47;nan;101765.75;5046500;28;19932;-80
2023/06/01 08:52:28;;;;;;;;;;;;;;;24.45;nan;101759.78;5047332;28;19916;-81
2023/06/01 08:54:54;;;;;;;;;;;;;;;24.59;nan;101765.13;5045915;28;19916;-81
2023/06/01 08:57:20;;;;;;;;;;;;;;;24.73;nan;101763.09;5043933;28;19925;-81
2023/06/01 08:59:45;;;;;;;;;;;;;;;24.91;nan;101759.25;5061404;28;20314;-81
2023/06/01 09:02:11;;;;;;;;;;;;;;;24.96;nan;101772.81;5049198;28;19951;-80
2023/06/01 09:04:41;;;;;;;;;;;;;;;25.03;nan;101760.59;5046428;28;19968;-80
2023/06/01 09:07:07;;;;;;;;;;;;;;;25.12;nan;101764.13;5046199;28;19938;-80
2023/06/01 09:09:32;;;;;;;;;;;;;;;25.18;nan;101758.19;5049077;28;20551;-81
2023/06/01 09:12:16;;;;;;;;;;;;;;;25.19;nan;101767.22;5051424;28;19924;-80
2023/06/01 09:14:41;;;;;;;;;;;;;;;25.22;nan;101766.56;5043562;28;19925;-80
2023/06/01 09:17:12;;;;;;;;;;;;;;;25.32;nan;101765.44;5047710;28;19970;-79
2023/06/01 09:19:46;;;;;;;;;;;;;;;25.51;nan;101766.72;5044409;28;19925;-79
2023/06/01 09:22:12;;;;;;;;;;;;;;;25.56;nan;101763.81;5045941;28;19923;-79
2023/06/01 09:24:38;;;;;;;;;;;;;;;25.62;nan;101769.94;5049982;28;19924;-80
2023/06/01 09:27:03;;;;;;;;;;;;;;;25.81;nan;101759.41;5046512;28;20460;-80
2023/06/01 09:29:29;;;;;;;;;;;;;;;26.04;nan;101756.47;5046272;28;19928;-79
2023/06/01 09:31:54;;;;;;;;;;;;;;;26.14;nan;101762.41;5047124;28;19935;-80
2023/06/01 09:34:21;;;;;;;;;;;;;;;26.20;nan;101761.06;5050687;28;19924;-80
2023/06/01 09:36:49;;;;;;;;;;;;;;;26.31;nan;101760.72;5061406;28;19916;-80
2023/06/01 09:39:16;;;;;;;;;;;;;;;26.42;nan;101762.00;5044399;28;19927;-80
2023/06/01 09:41:45;;;;;;;;;;;;;;;26.47;nan;101754.38;5050743;28;19920;-81
2023/06/01 09:44:11;;;;;;;;;;;;;;;26.48;nan;101757.91;5047960;28;19929;-82
2023/06/01 09:46:46;;;;;;;;;;;;;;;26.55;nan;101758.19;5044951;28;21605;-81
2023/06/01 09:49:17;;;;;;;;;;;;;;;26.63;nan;101757.34;5041612;28;19943;-81
2023/06/01 09:51:43;;;;;;;;;;;;;;;26.70;nan;101762.31;5048084;28;20343;-80
2023/06/01 09:54:08;;;;;;;;;;;;;;;26.72;nan;101749.84;5047131;28;19921;-80
2023/06/01 09:56:44;;;;;;;;;;;;;;;26.84;nan;101751.06;5045664;28;19947;-80
2023/06/01 09:59:09;;;;;;;;;;;;;;;26.85;nan;101747.19;5048843;28;20395;-80
2023/06/01 10:01:35;;;;;;;;;;;;;;;26.78;nan;101747.72;5043742;28;19921;-80
2023/06/01 10:04:00;;;;;;;;;;;;;;;26.79;nan;101750.13;5046033;28;19927;-80
2023/06/01 10:06:28;;;;;;;;;;;;;;;26.92;nan;101759.25;5048304;28;20384;-80
2023/06/01 10:08:54;;;;;;;;;;;;;;;26.94;nan;101753.44;5044054;28;20003;-80
2023/06/01 10:11:19;;;;;;;;;;;;;;;26.93;nan;101752.63;5047182;28;20340;-80
2023/06/01 10:13:45;;;;;;;;;;;;;;;26.94;nan;101751.50;5044250;28;19932;-80
2023/06/01 10:16:12;;;;;;;;;;;;;;;27.01;nan;101745.47;5045660;28;19924;-79
2023/06/01 10:18:38;;;;;;;;;;;;;;;27.08;nan;101742.97;5046946;28;19920;-80
2023/06/01 10:21:06;;;;;;;;;;;;;;;27.01;nan;101745.47;5044150;28;20455;-80
2023/06/01 10:23:31;;;;;;;;;;;;;;;27.07;nan;101741.38;5046869;28;20353;-79
2023/06/01 10:25:58;;;;;;;;;;;;;;;27.27;nan;101742.50;5043886;28;19920;-80
2023/06/01 10:28:25;;;;;;;;;;;;;;;27.43;nan;101734.44;5046474;28;19967;-79
2023/06/01 10:31:09;;;;;;;;;;;;;;;27.50;nan;101731.94;5043212;28;20023;-81
2023/06/01 10:33:53;;;;;;;;;;;;;;;27.55;nan;101739.97;5046270;28;19925;-80
2023/06/01 10:36:19;;;;;;;;;;;;;;;27.68;nan;101727.91;5040930;28;19917;-79
2023/06/01 10:38:44;;;;;;;;;;;;;;;27.91;nan;101731.03;5040765;28;19944;-80
2023/06/01 10:41:30;;;;;;;;;;;;;;;28.12;nan;101728.19;5042511;28;19925;-79
2023/06/01 10:43:55;;;;;;;;;;;;;;;28.18;nan;101726.81;5040528;28;19924;-80
2023/06/01 10:46:47;;;;;;;;;;;;;;;28.26;nan;101729.50;5036931;28;19925;-79
2023/06/01 10:49:12;;;;;;;;;;;;;;;28.31;nan;101731.22;5040141;28;19920;-81
2023/06/01 10:51:38;;;;;;;;;;;;;;;28.38;nan;101725.94;5041845;28;20544;-80
2023/06/01 10:54:22;;;;;;;;;;;;;;;28.26;nan;101734.19;5042710;28;20397;-81
2023/06/01 10:57:07;;;;;;;;;;;;;;;28.28;nan;101720.88;5037378;28;19932;-81
2023/06/01 10:59:32;;;;;;;;;;;;;;;28.41;nan;101719.72;5042943;28;19924;-82
2023/06/01 11:02:03;;;;;;;;;;;;;;;28.50;nan;101700.31;5039627;28;20304;-80
2023/06/01 11:04:36;;;;;;;;;;;;;;;28.68;nan;101706.34;5044958;28;19931;-81
2023/06/01 11:07:21;;;;;;;;;;;;;;;28.92;nan;101703.59;5034127;28;19935;-81
2023/06/01 11:09:46;;;;;;;;;;;;;;;29.07;nan;101705.56;5042059;28;19921;-82
2023/06/01 11:12:12;;;;;;;;;;;;;;;29.12;nan;101704.53;5044390;28;19920;-81
2023/06/01 11:14:58;;;;;;;;;;;;;;;28.92;nan;101698.06;5041176;28;19932;-81
2023/06/01 11:17:28;;;;;;;;;;;;;;;29.03;nan;101698.34;5041231;28;19948;-81
2023/06/01 11:20:01;;;;;;;;;;;;;;;29.27;nan;101700.22;5040836;28;20790;-80
2023/06/01 11:22:27;;;;;;;;;;;;;;;29.45;nan;101696.00;5033619;28;19921;-80
2023/06/01 11:24:55;;;;;;;;;;;;;;;29.48;nan;101698.88;5040344;28;20398;-81
2023/06/01 11:27:21;;;;;;;;;;;;;;;29.64;nan;101698.91;5038548;28;19931;-80
2023/06/01 11:29:49;;;;;;;;;;;;;;;29.57;nan;101698.69;5039339;28;20312;-80
2023/06/01 11:32:15;;;;;;;;;;;;;;;29.62;nan;101689.34;5037225;28;20388;-81
2023/06/01 11:34:44;;;;;;;;;;;;;;;29.68;nan;101694.28;5040600;28;19936;-81
2023/06/01 11:37:13;;;;;;;;;;;;;;;29.89;nan;101682.94;5038858;28;19979;-82
2023/06/01 11:39:40;;;;;;;;;;;;;;;29.96;nan;101690.59;5036240;28;19928;-80
2023/06/01 11:42:08;;;;;;;;;;;;;;;29.93;nan;101691.31;5039444;28;19917;-81
2023/06/01 11:44:35;;;;;;;;;;;;;;;29.82;nan;101691.06;5033318;28;19971;-81
2023/06/01 11:47:00;;;;;;;;;;;;;;;29.95;nan;101691.75;5037355;28;20212;-80
2023/06/01 11:49:26;;;;;;;;;;;;;;;30.13;nan;101679.22;5039227;28;19927;-80
2023/06/01 11:51:53;;;;;;;;;;;;;;;30.21;nan;101686.53;5034258;28;20527;-80
2023/06/01 11:54:26;;;;;;;;;;;;;;;30.26;nan;101679.91;5039386;28;20443;-80
2023/06/01 11:56:52;;;;;;;;;;;;;;;30.38;nan;101677.03;5042262;28;20016;-80
2023/06/01 11:59:17;;;;;;;;;;;;;;;30.54;nan;101677.00;5039236;28;19920;-80
2023/06/01 12:01:44;;;;;;;;;;;;;;;30.70;nan;101671.41;5038097;28;20685;-80
2023/06/01 12:04:18;;;;;;;;;;;;;;;30.84;nan;101677.25;5040181;28;19935;-80
2023/06/01 12:06:44;;;;;;;;;;;;;;;30.89;nan;101668.69;5040225;28;19932;-80
2023/06/01 12:09:10;;;;;;;;;;;;;;;30.92;nan;101665.97;5037468;28;19927;-80
2023/06/01 12:11:37;;;;;;;;;;;;;;;30.91;nan;101669.91;5038985;28;19920;-81
2023/06/01 12:14:05;;;;;;;;;;;;;;;31.11;nan;101672.66;5036773;28;19925;-81
2023/06/01 12:16:49;;;;;;;;;;;;;;;31.34;nan;101668.00;5037441;28;19947;-80
2023/06/01 12:19:15;;;;;;;;;;;;;;;31.29;nan;101665.53;5041811;28;19916;-81
2023/06/01 12:21:46;;;;;;;;;;;;;;;31.18;nan;101662.56;5038660;28;19924;-82
2023/06/01 12:24:12;;;;;;;;;;;;;;;31.25;nan;101670.22;5037845;28;19920;-82
2023/06/01 12:26:38;;;;;;;;;;;;;;;31.22;nan;101662.63;5033013;28;19998;-82
2023/06/01 12:29:03;;;;;;;;;;;;;;;31.28;nan;101652.84;5032644;28;20654;-81
2023/06/01 12:31:29;;;;;;;;;;;;;;;31.48;nan;101650.84;5039975;28;19931;-83
2023/06/01 12:33:55;;;;;;;;;;;;;;;31.67;nan;101648.00;5036825;28;20039;-82
2023/06/01 12:36:32;;;;;;;;;;;;;;;31.81;nan;101653.03;5035897;28;19982;-82
2023/06/01 12:39:01;;;;;;;;;;;;;;;31.87;nan;101640.44;5032618;28;19920;-82
2023/06/01 12:41:27;;;;;;;;;;;;;;;31.89;nan;101648.38;5038628;28;19987;-82
2023/06/01 12:43:53;;;;;;;;;;;;;;;31.81;nan;101653.03;5040202;28;20868;-82
2023/06/01 12:46:25;;;;;;;;;;;;;;;31.86;nan;101641.63;5038870;28;19928;-82
2023/06/01 12:49:10;;;;;;;;;;;;;;;31.98;nan;101638.63;5036220;28;19924;-81
2023/06/01 12:51:36;;;;;;;;;;;;;;;32.09;nan;101627.69;5038504;28;19921;-82
2023/06/01 12:54:02;;;;;;;;;;;;;;;32.26;nan;101626.34;5041117;28;19933;-82
2023/06/01 12:56:27;;;;;;;;;;;;;;;32.36;nan;101631.28;5036517;28;19943;-83